createdAt,value
2022-11-05T00:00:59.680Z,20.90
2022-11-05T00:03:47.942Z,20.90
2022-11-05T00:06:38.204Z,20.90
2022-11-05T00:09:28.631Z,20.90
2022-11-05T00:12:24.374Z,20.90
2022-11-05T00:15:16.243Z,20.90
2022-11-05T00:17:49.702Z,20.90
2022-11-05T00:20:22.793Z,20.80
2022-11-05T00:23:19.015Z,20.90
2022-11-05T00:26:05.854Z,20.90
2022-11-05T00:28:39.818Z,20.90
2022-11-05T00:31:14.574Z,20.90
2022-11-05T00:33:57.663Z,20.90
2022-11-05T00:36:42.987Z,20.90
2022-11-05T00:39:14.140Z,20.90
2022-11-05T00:41:44.328Z,20.90
2022-11-05T00:44:32.227Z,20.90
2022-11-05T00:47:20.367Z,20.90
2022-11-05T00:49:56.600Z,20.90
2022-11-05T00:52:44.549Z,20.90
2022-11-05T00:55:27.090Z,20.90
2022-11-05T00:57:57.791Z,20.90
2022-11-05T01:00:29.862Z,20.90
2022-11-05T01:03:08.333Z,20.90
2022-11-05T01:05:52.179Z,20.90
2022-11-05T01:08:23.889Z,20.90
2022-11-05T01:10:59.058Z,20.90
2022-11-05T01:13:36.373Z,20.90
2022-11-05T01:16:13.926Z,20.90
2022-11-05T01:18:50.022Z,20.90
2022-11-05T01:21:21.757Z,21.00
2022-11-05T01:23:57.698Z,21.00
2022-11-05T01:26:33.588Z,20.90
2022-11-05T01:29:06.814Z,20.90
2022-11-05T01:31:39.276Z,20.90
2022-11-05T01:34:09.754Z,21.00
2022-11-05T01:36:39.667Z,21.00
2022-11-05T01:39:12.882Z,21.00
2022-11-05T01:41:49.042Z,21.00
2022-11-05T01:44:56.438Z,21.00
2022-11-05T01:47:41.633Z,21.00
2022-11-05T01:50:39.285Z,21.00
2022-11-05T01:53:38.061Z,21.00
2022-11-05T01:56:13.797Z,21.10
2022-11-05T01:58:55.081Z,21.10
2022-11-05T02:01:26.207Z,21.10
2022-11-05T02:04:02.960Z,21.20
2022-11-05T02:06:40.549Z,21.20
2022-11-05T02:09:54.093Z,21.30
2022-11-05T02:12:27.493Z,21.30
2022-11-05T02:15:10.965Z,21.40
2022-11-05T02:17:46.500Z,21.40
2022-11-05T02:20:38.213Z,21.50
2022-11-05T02:23:29.806Z,21.50
2022-11-05T02:26:11.456Z,21.50
2022-11-05T02:28:49.418Z,21.50
2022-11-05T02:32:01.379Z,21.50
2022-11-05T02:34:44.295Z,21.60
2022-11-05T02:37:30.199Z,21.60
2022-11-05T02:40:21.370Z,21.60
2022-11-05T02:43:10.007Z,21.70
2022-11-05T02:46:06.335Z,21.70
2022-11-05T02:48:45.741Z,21.70
2022-11-05T02:51:35.168Z,21.80
2022-11-05T02:54:18.831Z,21.80
2022-11-05T02:56:55.929Z,21.80
2022-11-05T02:59:31.987Z,21.80
2022-11-05T03:02:08.373Z,21.80
2022-11-05T03:04:48.257Z,21.80
2022-11-05T03:07:49.501Z,21.90
2022-11-05T03:10:45.106Z,21.90
2022-11-05T03:13:54.831Z,22.00
2022-11-05T03:16:47.607Z,22.00
2022-11-05T03:19:57.976Z,22.00
2022-11-05T03:22:35.445Z,22.00
2022-11-05T03:25:13.770Z,22.00
2022-11-05T03:27:47.186Z,22.00
2022-11-05T03:30:17.947Z,22.00
2022-11-05T03:32:52.401Z,22.00
2022-11-05T03:35:45.573Z,22.00
2022-11-05T03:38:28.763Z,22.00
2022-11-05T03:41:03.558Z,22.00
2022-11-05T03:43:38.391Z,22.00
2022-11-05T03:46:23.316Z,22.00
2022-11-05T03:48:55.775Z,22.00
2022-11-05T03:51:56.001Z,22.00
2022-11-05T03:54:31.558Z,22.00
2022-11-05T03:57:22.917Z,22.00
2022-11-05T03:59:53.684Z,22.00
2022-11-05T04:02:25.214Z,22.10
2022-11-05T04:04:56.007Z,22.00
2022-11-05T04:07:44.503Z,22.10
2022-11-05T04:10:33.626Z,22.10
2022-11-05T04:13:21.788Z,22.10
2022-11-05T04:16:10.767Z,22.00
2022-11-05T04:18:41.096Z,22.10
2022-11-05T04:21:31.509Z,22.10
2022-11-05T04:24:10.591Z,22.10
2022-11-05T04:26:42.129Z,22.10
2022-11-05T04:29:30.400Z,22.20
2022-11-05T04:32:00.715Z,22.10
2022-11-05T04:34:32.276Z,22.20
2022-11-05T04:37:08.641Z,22.20
2022-11-05T04:39:38.686Z,22.10
2022-11-05T04:42:08.699Z,22.20
2022-11-05T04:44:38.858Z,22.20
2022-11-05T04:47:08.841Z,22.20
2022-11-05T04:49:38.863Z,22.20
2022-11-05T04:52:08.887Z,22.20
2022-11-05T04:54:39.520Z,22.20
2022-11-05T04:57:09.817Z,22.20
2022-11-05T04:59:40.202Z,22.20
2022-11-05T05:02:16.220Z,22.20
2022-11-05T05:04:46.476Z,22.20
2022-11-05T05:07:16.894Z,22.20
2022-11-05T05:09:46.980Z,22.20
2022-11-05T05:12:16.969Z,22.20
2022-11-05T05:14:50.301Z,22.20
2022-11-05T05:17:20.588Z,22.20
2022-11-05T05:20:08.681Z,22.20
2022-11-05T05:22:38.968Z,22.20
2022-11-05T05:25:09.669Z,22.20
2022-11-05T05:27:39.790Z,22.10
2022-11-05T05:30:14.919Z,22.20
2022-11-05T05:32:45.150Z,22.20
2022-11-05T05:35:15.336Z,22.10
2022-11-05T05:37:45.782Z,22.10
2022-11-05T05:40:15.827Z,22.10
2022-11-05T05:42:45.777Z,22.10
2022-11-05T05:45:16.242Z,22.10
2022-11-05T05:47:46.237Z,22.10
2022-11-05T05:50:16.363Z,22.10
2022-11-05T05:52:54.974Z,22.10
2022-11-05T05:55:25.233Z,22.10
2022-11-05T05:57:56.338Z,22.10
2022-11-05T06:00:26.491Z,22.10
2022-11-05T06:02:57.869Z,22.00
2022-11-05T06:05:28.265Z,22.00
2022-11-05T06:07:59.235Z,22.00
2022-11-05T06:10:29.476Z,22.00
2022-11-05T06:13:01.771Z,22.00
2022-11-05T06:15:35.686Z,22.00
2022-11-05T06:18:06.204Z,22.00
2022-11-05T06:20:36.235Z,22.00
2022-11-05T06:23:06.438Z,22.00
2022-11-05T06:25:41.058Z,22.00
2022-11-05T06:28:11.677Z,22.00
2022-11-05T06:30:43.527Z,22.00
2022-11-05T06:33:13.793Z,22.00
2022-11-05T06:35:44.183Z,22.00
2022-11-05T06:38:14.333Z,22.00
2022-11-05T06:40:45.889Z,22.00
2022-11-05T06:43:16.159Z,22.00
2022-11-05T06:45:46.367Z,22.00
2022-11-05T06:48:16.306Z,22.00
2022-11-05T06:50:46.760Z,22.00
2022-11-05T06:53:17.046Z,22.00
2022-11-05T06:55:49.024Z,22.00
2022-11-05T06:58:19.263Z,22.00
2022-11-05T07:00:49.335Z,22.00
2022-11-05T07:03:19.718Z,22.00
2022-11-05T07:05:52.259Z,22.00
2022-11-05T07:08:22.741Z,22.00
2022-11-05T07:10:52.842Z,22.00
2022-11-05T07:13:25.849Z,22.00
2022-11-05T07:15:56.174Z,22.00
2022-11-05T07:18:26.318Z,22.00
2022-11-05T07:20:56.588Z,22.00
2022-11-05T07:23:26.802Z,22.00
2022-11-05T07:25:56.721Z,22.00
2022-11-05T07:28:26.926Z,22.00
2022-11-05T07:30:56.942Z,22.00
2022-11-05T07:33:28.381Z,22.00
2022-11-05T07:36:00.345Z,22.00
2022-11-05T07:38:30.433Z,21.90
2022-11-05T07:41:03.398Z,22.00
2022-11-05T07:43:33.699Z,22.00
2022-11-05T07:46:03.987Z,22.00
2022-11-05T07:48:36.301Z,21.90
2022-11-05T07:51:06.571Z,21.90
2022-11-05T07:53:39.757Z,22.00
2022-11-05T07:56:14.058Z,22.00
2022-11-05T07:58:44.396Z,22.00
2022-11-05T08:01:14.789Z,22.00
2022-11-05T08:03:45.084Z,22.00
2022-11-05T08:06:15.329Z,22.00
2022-11-05T08:08:45.661Z,22.00
2022-11-05T08:11:16.019Z,22.00
2022-11-05T08:13:45.979Z,22.00
2022-11-05T08:16:16.695Z,22.00
2022-11-05T08:18:46.985Z,22.00
2022-11-05T08:21:16.924Z,22.00
2022-11-05T08:23:48.359Z,22.00
2022-11-05T08:26:18.728Z,22.00
2022-11-05T08:28:49.025Z,22.00
2022-11-05T08:31:19.351Z,22.00
2022-11-05T08:33:50.538Z,22.00
2022-11-05T08:36:21.005Z,22.00
2022-11-05T08:38:57.402Z,22.00
2022-11-05T08:41:30.198Z,22.00
2022-11-05T08:44:02.549Z,21.90
2022-11-05T08:46:35.388Z,22.00
2022-11-05T08:49:07.761Z,22.00
2022-11-05T08:51:38.071Z,21.90
2022-11-05T08:54:08.096Z,21.90
2022-11-05T08:56:38.095Z,21.90
2022-11-05T08:59:08.110Z,22.00
2022-11-05T09:01:38.145Z,21.90
2022-11-05T09:04:08.217Z,21.90
2022-11-05T09:06:38.335Z,21.90
2022-11-05T09:09:08.805Z,21.90
2022-11-05T09:12:05.724Z,21.90
2022-11-05T09:14:29.651Z,21.90
2022-11-05T09:16:59.723Z,21.90
2022-11-05T09:19:29.666Z,21.90
2022-11-05T09:22:00.628Z,21.90
2022-11-05T09:24:31.287Z,21.90
2022-11-05T09:27:01.429Z,21.90
2022-11-05T09:29:31.413Z,21.90
2022-11-05T09:32:02.212Z,21.80
2022-11-05T09:34:32.242Z,21.80
2022-11-05T09:37:09.527Z,21.90
2022-11-05T09:39:40.065Z,21.80
2022-11-05T09:42:11.124Z,21.80
2022-11-05T09:44:50.125Z,21.80
2022-11-05T09:47:25.450Z,21.80
2022-11-05T09:49:56.317Z,21.90
2022-11-05T09:52:28.997Z,21.80
2022-11-05T09:54:59.191Z,21.80
2022-11-05T09:57:43.470Z,21.80
2022-11-05T10:00:17.678Z,21.80
2022-11-05T10:02:58.948Z,21.80
2022-11-05T10:05:30.301Z,21.80
2022-11-05T10:08:06.514Z,21.80
2022-11-05T10:11:02.403Z,21.80
2022-11-05T10:13:57.577Z,21.80
2022-11-05T10:16:38.168Z,21.80
2022-11-05T10:19:26.297Z,21.80
2022-11-05T10:22:17.578Z,21.80
2022-11-05T10:24:51.922Z,21.80
2022-11-05T10:27:35.869Z,21.70
2022-11-05T10:30:06.594Z,21.70
2022-11-05T10:32:41.872Z,21.70
2022-11-05T10:35:15.869Z,21.70
2022-11-05T10:37:50.783Z,21.70
2022-11-05T10:40:58.682Z,21.70
2022-11-05T10:43:36.288Z,21.70
2022-11-05T10:46:24.369Z,21.70
2022-11-05T10:48:57.263Z,21.70
2022-11-05T10:51:33.614Z,21.70
2022-11-05T10:54:07.178Z,21.70
2022-11-05T10:56:42.005Z,21.70
2022-11-05T10:59:32.128Z,21.70
2022-11-05T11:02:16.222Z,21.70
2022-11-05T11:04:57.646Z,21.70
2022-11-05T11:07:33.882Z,21.70
2022-11-05T11:10:10.028Z,21.70
2022-11-05T11:12:41.329Z,21.70
2022-11-05T11:15:19.419Z,21.70
2022-11-05T11:17:51.414Z,21.70
2022-11-05T11:20:26.431Z,21.70
2022-11-05T11:23:14.847Z,21.70
2022-11-05T11:26:08.257Z,21.70
2022-11-05T11:29:12.876Z,21.60
2022-11-05T11:31:43.044Z,21.70
2022-11-05T11:34:31.559Z,21.70
2022-11-05T11:37:18.255Z,21.70
2022-11-05T11:39:51.136Z,21.70
2022-11-05T11:42:33.000Z,21.60
2022-11-05T11:45:22.430Z,21.60
2022-11-05T11:47:52.708Z,21.60
2022-11-05T11:50:46.499Z,21.60
2022-11-05T11:53:26.813Z,21.60
2022-11-05T11:56:06.133Z,21.60
2022-11-05T11:58:52.526Z,21.60
2022-11-05T12:01:51.125Z,21.60
2022-11-05T12:04:27.811Z,21.60
2022-11-05T12:07:06.987Z,21.60
2022-11-05T12:10:04.198Z,21.60
2022-11-05T12:12:45.206Z,21.60
2022-11-05T12:15:32.469Z,21.60
2022-11-05T12:18:14.871Z,21.60
2022-11-05T12:21:06.321Z,21.60
2022-11-05T12:23:56.856Z,21.60
2022-11-05T12:26:41.243Z,21.60
2022-11-05T12:29:35.376Z,21.50
2022-11-05T12:32:38.220Z,21.60
2022-11-05T12:35:58.145Z,21.60
2022-11-05T12:38:57.668Z,21.50
2022-11-05T12:41:52.473Z,21.60
2022-11-05T12:44:31.589Z,21.50
2022-11-05T12:47:26.531Z,21.60
2022-11-05T12:50:35.059Z,21.60
2022-11-05T12:53:19.607Z,21.50
2022-11-05T12:55:56.526Z,21.50
2022-11-05T12:59:14.239Z,21.60
2022-11-05T13:01:53.511Z,21.50
2022-11-05T13:04:59.086Z,21.50
2022-11-05T13:07:37.474Z,21.50
2022-11-05T13:10:12.200Z,21.50
2022-11-05T13:12:48.510Z,21.50
2022-11-05T13:15:54.033Z,21.50
2022-11-05T13:18:36.417Z,21.50
2022-11-05T13:21:11.084Z,21.50
2022-11-05T13:23:53.918Z,21.50
2022-11-05T13:26:34.990Z,21.50
2022-11-05T13:29:11.787Z,21.50
2022-11-05T13:31:51.027Z,21.50
2022-11-05T13:34:24.153Z,21.50
2022-11-05T13:37:14.052Z,21.50
2022-11-05T13:40:05.653Z,21.50
2022-11-05T13:43:22.986Z,21.50
2022-11-05T13:46:25.077Z,21.50
2022-11-05T13:48:59.949Z,21.50
2022-11-05T13:51:56.250Z,21.50
2022-11-05T13:54:52.546Z,21.50
2022-11-05T13:57:54.659Z,21.50
2022-11-05T14:00:26.939Z,21.50
2022-11-05T14:03:05.495Z,21.50
2022-11-05T14:05:41.334Z,21.50
2022-11-05T14:08:15.201Z,21.50
2022-11-05T14:11:00.321Z,21.50
2022-11-05T14:13:43.970Z,21.50
2022-11-05T14:16:25.392Z,21.50
2022-11-05T14:19:31.627Z,21.50
2022-11-05T14:22:02.055Z,21.50
2022-11-05T14:24:44.111Z,21.50
2022-11-05T14:27:37.342Z,21.50
2022-11-05T14:30:52.539Z,21.50
2022-11-05T14:33:30.986Z,21.50
2022-11-05T14:36:24.874Z,21.50
2022-11-05T14:39:03.970Z,21.50
2022-11-05T14:42:05.958Z,21.50
2022-11-05T14:44:36.694Z,21.50
2022-11-05T14:47:08.079Z,21.50
2022-11-05T14:49:52.232Z,21.50
2022-11-05T14:52:28.689Z,21.50
2022-11-05T14:54:59.335Z,21.40
2022-11-05T14:57:44.973Z,21.40
2022-11-05T15:00:43.270Z,21.40
2022-11-05T15:03:46.233Z,21.40
2022-11-05T15:06:35.012Z,21.40
2022-11-05T15:09:15.277Z,21.40
2022-11-05T15:11:58.057Z,21.50
2022-11-05T15:14:40.626Z,21.40
2022-11-05T15:17:32.374Z,21.50
2022-11-05T15:20:18.597Z,21.40
2022-11-05T15:23:08.684Z,21.40
2022-11-05T15:26:05.355Z,21.40
2022-11-05T15:28:40.319Z,21.40
2022-11-05T15:31:17.148Z,21.40
2022-11-05T15:33:48.896Z,21.40
2022-11-05T15:36:26.447Z,21.40
2022-11-05T15:39:27.521Z,21.40
2022-11-05T15:41:48.790Z,21.30
2022-11-05T15:44:35.929Z,21.40
2022-11-05T15:47:16.122Z,21.30
2022-11-05T15:49:51.775Z,21.30
2022-11-05T15:52:26.185Z,21.30
2022-11-05T15:55:21.088Z,21.30
2022-11-05T15:57:54.475Z,21.30
2022-11-05T16:00:36.642Z,21.30
2022-11-05T16:03:20.304Z,21.30
2022-11-05T16:05:56.753Z,21.30
2022-11-05T16:08:28.856Z,21.30
2022-11-05T16:11:02.505Z,21.30
2022-11-05T16:13:49.599Z,21.40
2022-11-05T16:16:19.931Z,21.30
2022-11-05T16:18:56.797Z,21.30
2022-11-05T16:21:27.232Z,21.30
2022-11-05T16:23:59.649Z,21.30
2022-11-05T16:29:44.069Z,21.30
2022-11-05T16:32:28.552Z,21.30
2022-11-05T16:35:06.261Z,21.30
2022-11-05T16:37:41.249Z,21.30
2022-11-05T16:40:18.275Z,21.30
2022-11-05T16:42:52.689Z,21.30
2022-11-05T16:45:26.561Z,21.30
2022-11-05T16:47:56.712Z,21.30
2022-11-05T16:50:31.343Z,21.30
2022-11-05T16:53:01.684Z,21.20
2022-11-05T16:55:32.458Z,21.30
2022-11-05T16:58:02.702Z,21.20
2022-11-05T17:00:32.634Z,21.20
2022-11-05T17:03:06.316Z,21.20
2022-11-05T17:05:36.813Z,21.20
2022-11-05T17:08:07.267Z,21.30
2022-11-05T17:10:37.500Z,21.20
2022-11-05T17:13:07.557Z,21.20
2022-11-05T17:15:37.562Z,21.20
2022-11-05T17:18:07.768Z,21.20
2022-11-05T17:20:43.909Z,21.20
2022-11-05T17:23:21.835Z,21.20
2022-11-05T17:25:56.353Z,21.20
2022-11-05T17:28:27.322Z,21.20
2022-11-05T17:30:59.636Z,21.20
2022-11-05T17:33:30.299Z,21.20
2022-11-05T17:36:02.012Z,21.20
2022-11-05T17:38:32.130Z,21.20
2022-11-05T17:41:02.352Z,21.20
2022-11-05T17:43:32.452Z,21.20
2022-11-05T17:46:08.645Z,21.20
2022-11-05T17:48:45.551Z,21.20
2022-11-05T17:51:20.157Z,21.20
2022-11-05T17:53:56.608Z,21.10
2022-11-05T17:56:35.012Z,21.10
2022-11-05T17:59:10.090Z,21.10
2022-11-05T18:01:44.395Z,21.10
2022-11-05T18:04:18.196Z,21.10
2022-11-05T18:06:48.292Z,21.10
2022-11-05T18:09:18.390Z,21.10
2022-11-05T18:11:48.351Z,21.10
2022-11-05T18:14:23.739Z,21.10
2022-11-05T18:17:01.230Z,21.20
2022-11-05T18:19:31.672Z,21.10
2022-11-05T18:22:08.256Z,21.10
2022-11-05T18:24:38.530Z,21.10
2022-11-05T18:27:08.641Z,21.10
2022-11-05T18:29:38.920Z,21.10
2022-11-05T18:32:10.679Z,21.10
2022-11-05T18:34:43.868Z,21.10
2022-11-05T18:37:17.492Z,21.10
2022-11-05T18:39:50.842Z,21.10
2022-11-05T18:42:22.996Z,21.10
2022-11-05T18:44:56.060Z,21.10
2022-11-05T18:47:33.013Z,21.10
2022-11-05T18:50:19.380Z,21.10
2022-11-05T18:52:58.651Z,21.00
2022-11-05T18:55:30.666Z,21.10
2022-11-05T18:58:06.855Z,21.10
2022-11-05T19:00:40.172Z,21.10
2022-11-05T19:03:16.599Z,21.10
2022-11-05T19:05:50.160Z,21.10
2022-11-05T19:08:26.146Z,21.00
2022-11-05T19:10:57.877Z,21.00
2022-11-05T19:13:34.331Z,21.00
2022-11-05T19:16:07.167Z,21.00
2022-11-05T19:18:39.074Z,21.10
2022-11-05T19:21:26.171Z,21.00
2022-11-05T19:24:16.787Z,21.00
2022-11-05T19:26:50.358Z,21.00
2022-11-05T19:29:20.491Z,21.00
2022-11-05T19:31:50.425Z,21.00
2022-11-05T19:34:20.431Z,21.00
2022-11-05T19:36:50.624Z,21.00
2022-11-05T19:39:20.525Z,21.00
2022-11-05T19:42:03.947Z,21.00
2022-11-05T19:44:40.562Z,21.00
2022-11-05T19:47:17.019Z,21.00
2022-11-05T19:49:52.225Z,21.00
2022-11-05T19:52:28.794Z,21.00
2022-11-05T19:55:10.942Z,21.00
2022-11-05T19:57:46.486Z,21.00
2022-11-05T20:00:20.010Z,21.00
2022-11-05T20:02:56.368Z,21.00
2022-11-05T20:05:29.750Z,21.00
2022-11-05T20:08:06.002Z,21.00
2022-11-05T20:10:38.974Z,21.00
2022-11-05T20:13:11.451Z,21.00
2022-11-05T20:15:45.996Z,21.00
2022-11-05T20:18:18.191Z,21.00
2022-11-05T20:20:48.417Z,21.00
2022-11-05T20:23:24.285Z,21.00
2022-11-05T20:25:58.803Z,21.00
2022-11-05T20:28:29.462Z,21.00
2022-11-05T20:31:02.079Z,21.00
2022-11-05T20:33:38.418Z,21.00
2022-11-05T20:36:10.705Z,21.00
2022-11-05T20:38:46.629Z,20.90
2022-11-05T20:41:18.645Z,21.00
2022-11-05T20:43:51.293Z,20.90
2022-11-05T20:46:28.204Z,21.00
2022-11-05T20:49:04.344Z,21.00
2022-11-05T20:51:34.650Z,20.90
2022-11-05T20:54:05.569Z,20.90
2022-11-05T20:56:36.618Z,20.90
2022-11-05T20:59:07.001Z,20.90
2022-11-05T21:01:37.314Z,20.90
2022-11-05T21:04:13.941Z,20.90
2022-11-05T21:06:43.992Z,20.90
2022-11-05T21:09:16.550Z,20.90
2022-11-05T21:12:04.997Z,20.90
2022-11-05T21:14:35.310Z,20.90
2022-11-05T21:17:08.350Z,20.90
2022-11-05T21:19:45.050Z,20.90
2022-11-05T21:22:18.584Z,20.90
2022-11-05T21:24:50.386Z,20.90
2022-11-05T21:27:23.867Z,20.80
2022-11-05T21:29:55.174Z,20.90
2022-11-05T21:32:25.369Z,20.90
2022-11-05T21:34:55.772Z,20.90
2022-11-05T21:37:26.266Z,20.90
2022-11-05T21:39:56.280Z,20.80
2022-11-05T21:42:26.228Z,20.80
2022-11-05T21:45:02.352Z,20.90
2022-11-05T21:47:32.602Z,20.90
2022-11-05T21:50:02.659Z,20.80
2022-11-05T21:52:50.855Z,20.80
2022-11-05T21:55:24.046Z,20.80
2022-11-05T21:58:12.901Z,20.80
2022-11-05T22:00:46.138Z,20.80
2022-11-05T22:03:16.357Z,20.80
2022-11-05T22:05:46.581Z,20.80
2022-11-05T22:08:16.967Z,20.80
2022-11-05T22:10:46.952Z,20.80
2022-11-05T22:13:19.885Z,20.80
2022-11-05T22:16:11.379Z,20.80
2022-11-05T22:18:41.489Z,20.80
2022-11-05T22:21:20.079Z,20.80
2022-11-05T22:23:56.571Z,20.80
2022-11-05T22:26:36.533Z,20.80
2022-11-05T22:29:16.573Z,20.80
2022-11-05T22:31:51.024Z,20.80
2022-11-05T22:34:24.222Z,20.80
2022-11-05T22:36:54.775Z,20.80
2022-11-05T22:39:28.000Z,20.70
2022-11-05T22:42:08.568Z,20.80
2022-11-05T22:44:39.603Z,20.70
2022-11-05T22:47:10.236Z,20.80
2022-11-05T22:49:46.645Z,20.70
2022-11-05T22:52:18.493Z,20.70
2022-11-05T22:54:56.883Z,20.70
2022-11-05T22:57:30.367Z,20.70
2022-11-05T23:00:06.392Z,20.70
2022-11-05T23:02:36.351Z,20.70
2022-11-05T23:05:19.263Z,20.70
2022-11-05T23:08:09.827Z,20.70
2022-11-05T23:10:59.094Z,20.70
2022-11-05T23:13:30.165Z,20.70
2022-11-05T23:16:18.568Z,20.70
2022-11-05T23:19:06.825Z,20.70
2022-11-05T23:21:58.494Z,20.70
2022-11-05T23:24:31.936Z,20.70
2022-11-05T23:27:02.177Z,20.70
2022-11-05T23:29:38.983Z,20.70
2022-11-05T23:32:28.337Z,20.70
2022-11-05T23:35:05.329Z,20.70
2022-11-05T23:37:53.598Z,20.70
2022-11-05T23:40:25.887Z,20.70
2022-11-05T23:43:16.167Z,20.70
2022-11-05T23:46:04.432Z,20.70
2022-11-05T23:48:36.449Z,20.70
2022-11-05T23:51:11.681Z,20.60
2022-11-05T23:53:42.576Z,20.70
2022-11-05T23:56:14.686Z,20.70
2022-11-05T23:58:44.919Z,20.70
